Time;durP1;ratioP1;P1;durP2;ratioP2;P2;SDS_P1;SDS_P2;PMS_P1;PMS_P2;Temp;Humidity;BMP_temperature;BMP_pressure;BME280_temperature;BME280_humidity;BME280_pressure;Samples;Min_cycle;Max_cycle;Signal;HPM_P1;HPM_P2
2022/03/23 00:00:18;;;;;;;71.20;29.60;;;;;;;0.03;66.71;102328.79;83428;1326;1003069;-72
2022/03/23 00:02:51;;;;;;;74.30;30.10;;;;;;;0.01;66.77;102327.72;84802;1327;22730;-73
2022/03/23 00:04:59;;;;;;;73.60;30.70;;;;;;;0.00;66.53;102324.60;84809;1327;22597;-72
2022/03/23 00:07:08;;;;;;;78.30;30.70;;;;;;;-0.01;66.53;102326.61;84782;1319;22706;-72
2022/03/23 00:09:20;;;;;;;91.70;33.60;;;;;;;-0.04;66.86;102329.27;84823;1326;22805;-80
2022/03/23 00:11:32;;;;;;;80.60;32.00;;;;;;;-0.06;66.75;102327.48;84708;1327;22664;-80
2022/03/23 00:13:40;;;;;;;80.00;31.90;;;;;;;-0.09;66.78;102326.48;84777;1326;22890;-73
2022/03/23 00:15:49;;;;;;;64.30;28.30;;;;;;;-0.13;66.94;102326.36;84754;1328;22895;-78
2022/03/23 00:17:57;;;;;;;57.70;26.30;;;;;;;-0.15;67.07;102323.67;84776;1326;26210;-79
2022/03/23 00:20:07;;;;;;;59.10;24.60;;;;;;;-0.18;67.03;102323.77;84135;1327;1003239;-79
2022/03/23 00:22:18;;;;;;;46.20;22.50;;;;;;;-0.19;67.22;102323.71;84820;1327;24247;-79
2022/03/23 00:24:27;;;;;;;45.80;23.60;;;;;;;-0.22;67.27;102321.36;84783;1327;25981;-72
2022/03/23 00:26:38;;;;;;;47.50;20.90;;;;;;;-0.24;67.44;102322.14;84808;1325;22691;-72
2022/03/23 00:28:49;;;;;;;56.40;23.90;;;;;;;-0.25;67.28;102320.91;84831;1326;22728;-74
2022/03/23 00:30:59;;;;;;;47.00;22.30;;;;;;;-0.26;67.62;102319.49;84719;1326;22573;-79
2022/03/23 00:33:07;;;;;;;43.00;21.30;;;;;;;-0.26;67.65;102315.38;84794;1327;23980;-79
2022/03/23 00:35:18;;;;;;;39.50;21.40;;;;;;;-0.26;67.61;102318.14;84790;1327;22727;-74
2022/03/23 00:37:27;;;;;;;58.30;26.30;;;;;;;-0.26;67.72;102317.12;84789;1327;22588;-73
2022/03/23 00:39:35;;;;;;;71.10;28.30;;;;;;;-0.26;67.56;102311.79;84800;1327;22586;-78
2022/03/23 00:41:49;;;;;;;61.90;26.80;;;;;;;-0.26;67.53;102311.80;84797;1326;22705;-78
2022/03/23 00:44:00;;;;;;;74.80;32.40;;;;;;;-0.27;67.62;102310.20;84728;1325;25435;-78
2022/03/23 00:46:12;;;;;;;79.70;30.60;;;;;;;-0.29;67.50;102309.81;84745;1327;23959;-72
2022/03/23 00:48:20;;;;;;;78.20;32.00;;;;;;;-0.32;67.85;102309.19;84810;1327;22821;-72
2022/03/23 00:50:29;;;;;;;66.20;29.20;;;;;;;-0.36;67.70;102308.67;84756;1327;22578;-73
2022/03/23 00:52:40;;;;;;;53.40;25.70;;;;;;;-0.40;67.83;102305.09;84773;1327;22601;-72
2022/03/23 00:54:48;;;;;;;69.70;27.90;;;;;;;-0.44;67.91;102305.63;84788;1325;24245;-79
2022/03/23 00:56:56;;;;;;;56.20;24.10;;;;;;;-0.48;67.81;102301.17;84781;1327;22607;-78
2022/03/23 00:59:08;;;;;;;51.20;24.10;;;;;;;-0.50;68.05;102299.04;84802;1328;23036;-77
2022/03/23 01:01:19;;;;;;;43.10;21.90;;;;;;;-0.54;68.03;102296.36;84764;1327;24266;-79
2022/03/23 01:03:26;;;;;;;44.10;20.60;;;;;;;-0.56;68.19;102296.45;84793;1325;25441;-79
2022/03/23 01:05:37;;;;;;;38.70;21.20;;;;;;;-0.58;68.48;102296.18;84831;1326;22580;-78
2022/03/23 01:07:46;;;;;;;48.70;21.90;;;;;;;-0.58;68.54;102293.59;84807;1325;22580;-78
2022/03/23 01:09:58;;;;;;;43.60;19.90;;;;;;;-0.59;68.67;102291.00;84819;1326;22778;-79
2022/03/23 01:12:08;;;;;;;46.70;23.60;;;;;;;-0.59;68.62;102292.55;84787;1327;26631;-78
2022/03/23 01:14:20;;;;;;;44.70;22.00;;;;;;;-0.59;68.56;102289.95;84719;1327;24013;-78
2022/03/23 01:16:29;;;;;;;40.20;21.90;;;;;;;-0.61;68.60;102288.52;84791;1328;22597;-78
2022/03/23 01:18:40;;;;;;;48.60;22.20;;;;;;;-0.62;68.62;102289.16;84787;1329;22590;-79
2022/03/23 01:20:52;;;;;;;44.30;21.10;;;;;;;-0.63;68.52;102287.40;84816;1327;23641;-73
2022/03/23 01:23:04;;;;;;;44.30;21.30;;;;;;;-0.67;68.80;102284.86;84693;1326;22612;-70
2022/03/23 01:25:13;;;;;;;37.00;20.20;;;;;;;-0.71;68.96;102287.26;84779;1326;22605;-78
2022/03/23 01:27:21;;;;;;;40.20;20.90;;;;;;;-0.76;68.92;102288.10;84712;1327;22771;-78
2022/03/23 01:29:30;;;;;;;36.00;19.80;;;;;;;-0.80;68.89;102288.13;84774;1326;25442;-72
2022/03/23 01:31:41;;;;;;;41.20;20.40;;;;;;;-0.84;69.07;102290.20;84781;1325;24855;-72
2022/03/23 01:33:49;;;;;;;42.00;20.10;;;;;;;-0.87;69.18;102288.72;84791;1327;22590;-72
2022/03/23 01:35:58;;;;;;;42.30;21.80;;;;;;;-0.88;69.39;102286.10;84725;1326;22637;-72
2022/03/23 01:38:06;;;;;;;43.10;21.80;;;;;;;-0.89;69.58;102284.34;84789;1326;22598;-72
2022/03/23 01:40:16;;;;;;;48.70;23.40;;;;;;;-0.89;69.87;102287.95;84809;1327;22615;-79
2022/03/23 01:42:29;;;;;;;44.00;22.40;;;;;;;-0.89;69.98;102284.36;84786;1327;25471;-79
2022/03/23 01:44:40;;;;;;;50.50;22.00;;;;;;;-0.88;69.88;102282.67;84745;1326;26506;-78
2022/03/23 01:47:07;;;;;;;44.20;21.70;;;;;;;-0.88;70.10;102282.48;84797;1328;22735;-79
2022/03/23 01:49:15;;;;;;;60.50;24.50;;;;;;;-0.90;69.86;102281.04;84784;1326;24290;-73
2022/03/23 01:51:24;;;;;;;50.40;25.20;;;;;;;-0.90;70.07;102278.98;84803;1326;23837;-72
2022/03/23 01:53:35;;;;;;;65.50;26.00;;;;;;;-0.92;69.92;102280.64;84793;1325;23806;-73
2022/03/23 01:55:43;;;;;;;55.30;26.70;;;;;;;-0.93;69.79;102276.81;84806;1326;22606;-79
2022/03/23 01:57:55;;;;;;;56.10;26.90;;;;;;;-0.95;69.96;102273.67;84781;1327;26514;-79
2022/03/23 02:00:03;;;;;;;60.10;25.20;;;;;;;-0.97;69.84;102273.91;84739;1326;22659;-72
2022/03/23 02:02:12;;;;;;;58.00;27.30;;;;;;;-1.00;69.76;102272.10;84805;1327;24359;-72
2022/03/23 02:04:24;;;;;;;53.40;25.00;;;;;;;-1.04;69.92;102275.19;84013;1327;1099661;-72
2022/03/23 02:06:35;;;;;;;51.90;24.60;;;;;;;-1.07;69.89;102273.18;84803;1326;23562;-71
2022/03/23 02:08:47;;;;;;;56.10;24.50;;;;;;;-1.08;69.99;102275.88;84804;1327;24518;-71
2022/03/23 02:10:55;;;;;;;45.70;23.60;;;;;;;-1.09;70.17;102272.93;84800;1326;25463;-72
2022/03/23 02:13:04;;;;;;;53.60;24.70;;;;;;;-1.10;70.39;102269.28;84786;1329;22566;-73
2022/03/23 02:15:17;;;;;;;46.70;22.90;;;;;;;-1.14;70.51;102264.71;84835;1326;22593;-79
2022/03/23 02:17:26;;;;;;;45.80;23.10;;;;;;;-1.15;70.48;102264.79;84774;1324;22597;-79
2022/03/23 02:19:34;;;;;;;39.10;22.10;;;;;;;-1.16;70.44;102263.74;84755;1327;22735;-79
2022/03/23 02:21:48;;;;;;;47.00;23.80;;;;;;;-1.15;70.77;102262.05;84792;1326;23001;-79
2022/03/23 02:23:59;;;;;;;45.50;21.80;;;;;;;-1.17;70.79;102262.52;84054;1327;1003863;-79
2022/03/23 02:26:07;;;;;;;52.00;24.10;;;;;;;-1.19;70.93;102261.04;84793;1327;23831;-72
2022/03/23 02:28:16;;;;;;;49.20;24.70;;;;;;;-1.23;70.90;102260.55;84779;1319;22818;-72
2022/03/23 02:30:24;;;;;;;40.70;21.00;;;;;;;-1.24;70.97;102262.02;84779;1326;22933;-72
2022/03/23 02:32:35;;;;;;;44.00;21.60;;;;;;;-1.28;71.03;102264.13;84785;1325;23863;-71
2022/03/23 02:34:44;;;;;;;43.70;23.10;;;;;;;-1.30;70.96;102264.36;84790;1325;25260;-78
2022/03/23 02:36:52;;;;;;;48.90;22.70;;;;;;;-1.33;71.10;102267.66;84774;1325;26751;-77
2022/03/23 02:39:01;;;;;;;41.70;21.70;;;;;;;-1.35;70.91;102272.20;84804;1327;22698;-76
2022/03/23 02:41:10;;;;;;;46.30;22.60;;;;;;;-1.40;70.92;102269.44;84784;1327;22663;-78
2022/03/23 02:43:19;;;;;;;43.90;22.10;;;;;;;-1.43;71.08;102266.26;84798;1327;22596;-78
2022/03/23 02:45:30;;;;;;;41.60;20.50;;;;;;;-1.45;71.24;102267.34;84773;1327;22796;-73
2022/03/23 02:47:38;;;;;;;42.50;22.00;;;;;;;-1.47;71.32;102263.70;84799;1323;23958;-73
2022/03/23 02:49:46;;;;;;;40.10;21.10;;;;;;;-1.48;71.37;102262.11;84814;1326;22932;-73
2022/03/23 02:51:54;;;;;;;44.50;22.10;;;;;;;-1.48;71.40;102261.23;84805;1329;24920;-73
2022/03/23 03:01:54;;;;;;;47.80;25.60;;;;;;;-1.51;72.08;102244.17;84559;1327;22700;-73
2022/03/23 03:04:05;;;;;;;61.20;33.30;;;;;;;-1.47;72.34;102239.70;84802;1327;22762;-77
2022/03/23 03:06:13;;;;;;;71.50;34.30;;;;;;;-1.39;72.70;102238.16;84813;1326;22582;-79
2022/03/23 03:10:47;;;;;;;55.10;30.20;;;;;;;-1.25;72.69;102233.05;84802;1327;22611;-73
2022/03/23 03:12:55;;;;;;;60.00;32.70;;;;;;;-1.22;72.59;102232.35;84802;1328;22779;-72
2022/03/23 03:15:04;;;;;;;60.80;29.70;;;;;;;-1.21;72.30;102227.42;84804;1325;22583;-78
2022/03/23 03:17:14;;;;;;;61.80;30.60;;;;;;;-1.19;72.40;102222.16;84822;1327;22580;-78
2022/03/23 03:19:23;;;;;;;57.00;31.20;;;;;;;-1.15;72.71;102220.27;84811;1329;22746;-72
2022/03/23 03:21:32;;;;;;;53.90;29.20;;;;;;;-1.12;72.41;102218.71;84781;1329;25607;-73
2022/03/23 03:23:43;;;;;;;54.70;31.40;;;;;;;-1.11;72.12;102218.41;84777;1329;22579;-72
2022/03/23 03:25:56;;;;;;;56.00;28.80;;;;;;;-1.09;72.14;102218.46;84770;1330;24244;-79
2022/03/23 03:28:05;;;;;;;54.90;31.10;;;;;;;-1.08;71.94;102217.98;84801;1327;25267;-79
2022/03/23 03:30:20;;;;;;;54.70;31.20;;;;;;;-1.08;71.82;102213.55;84768;1327;23901;-73
2022/03/23 03:32:30;;;;;;;54.60;28.80;;;;;;;-1.10;71.90;102214.30;84777;1329;22593;-73
2022/03/23 03:34:39;;;;;;;57.40;28.50;;;;;;;-1.14;71.85;102213.84;84659;1329;22690;-72
2022/03/23 03:36:49;;;;;;;58.10;31.80;;;;;;;-1.16;71.79;102215.11;84727;1324;22599;-71
2022/03/23 03:38:58;;;;;;;55.80;30.40;;;;;;;-1.19;71.74;102210.52;84742;1330;23060;-74
2022/03/23 03:41:10;;;;;;;59.10;31.40;;;;;;;-1.23;71.77;102211.23;84791;1327;22609;-75
2022/03/23 03:43:23;;;;;;;57.20;29.70;;;;;;;-1.27;71.80;102211.94;84744;1327;22638;-72
2022/03/23 03:45:31;;;;;;;53.90;29.30;;;;;;;-1.30;71.76;102207.55;84819;1326;22747;-79
2022/03/23 03:47:40;;;;;;;52.70;28.40;;;;;;;-1.33;71.95;102209.83;84770;1326;25261;-79
2022/03/23 03:49:52;;;;;;;54.80;29.40;;;;;;;-1.34;72.13;102207.85;84787;1327;26448;-78
2022/03/23 03:52:01;;;;;;;50.80;27.70;;;;;;;-1.37;72.11;102210.69;84775;1324;24360;-78
2022/03/23 03:54:13;;;;;;;61.30;29.50;;;;;;;-1.38;72.06;102211.30;84827;1327;22603;-71
2022/03/23 03:56:22;;;;;;;52.00;29.20;;;;;;;-1.39;72.04;102211.09;84770;1327;22593;-71
2022/03/23 03:58:30;;;;;;;52.70;29.20;;;;;;;-1.39;72.21;102208.89;84798;1326;22845;-73
2022/03/23 04:00:42;;;;;;;52.20;29.50;;;;;;;-1.39;71.90;102210.23;84806;1328;22574;-71
2022/03/23 04:02:51;;;;;;;55.80;30.50;;;;;;;-1.40;71.95;102214.14;84673;1331;22834;-71
2022/03/23 04:05:00;;;;;;;49.70;30.10;;;;;;;-1.43;71.99;102215.37;84813;1327;22631;-72
2022/03/23 04:07:09;;;;;;;55.30;28.80;;;;;;;-1.45;71.96;102216.16;84796;1326;23926;-71
2022/03/23 04:09:21;;;;;;;60.50;31.30;;;;;;;-1.48;72.09;102216.73;84767;1329;25975;-76
2022/03/23 04:11:30;;;;;;;60.50;31.50;;;;;;;-1.51;72.08;102216.62;84805;1329;22584;-77
2022/03/23 04:13:42;;;;;;;56.70;31.00;;;;;;;-1.52;72.09;102217.93;84711;1327;23799;-78
2022/03/23 04:15:50;;;;;;;51.90;29.00;;;;;;;-1.55;72.09;102217.80;84784;1326;22574;-77
2022/03/23 04:17:59;;;;;;;52.60;28.10;;;;;;;-1.59;72.11;102218.88;84804;1326;24997;-78
2022/03/23 04:20:13;;;;;;;56.30;29.50;;;;;;;-1.59;72.21;102219.17;84820;1327;23017;-78
2022/03/23 04:22:21;;;;;;;54.70;27.80;;;;;;;-1.60;72.32;102216.60;84661;1330;22613;-78
2022/03/23 04:24:33;;;;;;;58.50;29.00;;;;;;;-1.60;72.34;102212.30;84700;1327;23174;-72
2022/03/23 04:26:44;;;;;;;46.90;27.60;;;;;;;-1.59;72.46;102213.55;84797;1326;22594;-73
2022/03/23 04:28:56;;;;;;;57.90;29.50;;;;;;;-1.59;72.36;102213.41;84782;1328;22690;-73
2022/03/23 04:31:06;;;;;;;53.80;30.20;;;;;;;-1.59;72.53;102214.75;84783;1328;22589;-73
2022/03/23 04:33:15;;;;;;;54.40;28.60;;;;;;;-1.60;72.46;102208.71;84781;1322;23987;-72
2022/03/23 04:35:24;;;;;;;59.30;30.20;;;;;;;-1.62;72.48;102207.29;84781;1326;22600;-72
2022/03/23 04:37:32;;;;;;;58.20;30.30;;;;;;;-1.63;72.45;102206.40;84084;1329;1003135;-73
2022/03/23 04:39:41;;;;;;;58.60;30.40;;;;;;;-1.64;72.49;102205.13;84789;1326;25432;-73
2022/03/23 04:41:50;;;;;;;53.60;29.40;;;;;;;-1.66;72.46;102201.29;84807;1325;22603;-71
2022/03/23 04:44:02;;;;;;;56.50;30.00;;;;;;;-1.68;72.60;102201.89;84806;1328;25306;-74
2022/03/23 04:46:11;;;;;;;59.40;29.90;;;;;;;-1.68;72.71;102202.41;84769;1327;22877;-71
2022/03/23 04:48:19;;;;;;;50.80;27.40;;;;;;;-1.68;72.74;102202.55;84778;1325;22600;-71
2022/03/23 04:50:28;;;;;;;50.80;27.40;;;;;;;-1.66;72.80;102199.06;84809;1327;24367;-71
2022/03/23 04:52:37;;;;;;;55.10;28.40;;;;;;;-1.64;72.85;102203.41;84773;1327;22552;-71
2022/03/23 04:54:49;;;;;;;51.10;27.80;;;;;;;-1.63;72.88;102200.39;84834;1327;24265;-78
2022/03/23 04:56:57;;;;;;;47.30;26.00;;;;;;;-1.62;73.06;102202.67;84776;1325;25751;-78
2022/03/23 04:59:05;;;;;;;48.80;27.20;;;;;;;-1.59;73.00;102199.02;84760;1327;22679;-76
2022/03/23 05:01:17;;;;;;;49.60;28.60;;;;;;;-1.56;73.19;102191.96;84797;1328;22885;-78
2022/03/23 05:03:26;;;;;;;46.60;28.10;;;;;;;-1.50;73.19;102191.48;84787;1317;22591;-78
2022/03/23 05:05:37;;;;;;;53.40;28.30;;;;;;;-1.46;73.20;102191.84;84779;1323;23879;-71
2022/03/23 05:07:46;;;;;;;47.20;27.60;;;;;;;-1.40;73.04;102192.05;84792;1328;22896;-72
2022/03/23 05:09:58;;;;;;;49.90;28.50;;;;;;;-1.36;73.24;102189.65;84794;1328;22577;-78
2022/03/23 05:12:08;;;;;;;48.30;27.50;;;;;;;-1.33;73.30;102188.75;84793;1327;22648;-78
2022/03/23 05:14:17;;;;;;;51.80;28.20;;;;;;;-1.27;73.29;102190.01;84687;1329;22707;-77
2022/03/23 05:16:29;;;;;;;50.60;28.70;;;;;;;-1.20;73.33;102188.06;84777;1327;22591;-79
2022/03/23 05:18:38;;;;;;;58.20;28.20;;;;;;;-0.79;73.84;102183.14;84798;1326;22848;-79
2022/03/23 05:20:49;;;;;;;49.20;28.80;;;;;;;0.10;74.27;102186.48;84813;1326;23777;-78
2022/03/23 05:22:59;;;;;;;44.90;27.00;;;;;;;0.85;73.26;102181.48;84783;1325;25645;-77
2022/03/23 05:25:10;;;;;;;42.50;27.10;;;;;;;1.49;71.84;102183.90;84813;1325;22592;-77
2022/03/23 05:27:18;;;;;;;50.20;26.90;;;;;;;1.70;70.49;102183.80;84799;1329;24413;-79
2022/03/23 05:29:26;;;;;;;45.70;27.00;;;;;;;1.58;69.28;102181.07;84805;1321;22595;-78
2022/03/23 05:31:37;;;;;;;49.60;27.30;;;;;;;1.45;69.24;102177.79;84729;1327;22632;-79
2022/03/23 05:33:46;;;;;;;47.80;28.80;;;;;;;1.33;68.83;102175.86;84810;1326;24338;-78
2022/03/23 05:35:55;;;;;;;46.10;28.10;;;;;;;1.23;69.01;102173.55;84785;1327;25429;-78
2022/03/23 05:38:07;;;;;;;50.30;30.20;;;;;;;1.18;69.09;102174.60;84785;1327;24068;-79
2022/03/23 05:40:20;;;;;;;47.90;29.00;;;;;;;1.13;69.37;102173.06;84806;1325;23787;-71
2022/03/23 05:42:29;;;;;;;49.00;29.80;;;;;;;1.12;69.54;102170.63;84672;1332;25945;-71
2022/03/23 05:44:39;;;;;;;52.70;29.60;;;;;;;1.15;69.77;102170.03;84782;1327;23882;-78
2022/03/23 05:46:48;;;;;;;62.90;32.50;;;;;;;1.18;69.72;102169.79;84807;1327;24296;-77
2022/03/23 05:48:58;;;;;;;54.20;32.20;;;;;;;1.22;69.84;102170.24;84814;1323;23998;-76
2022/03/23 05:51:08;;;;;;;57.40;30.70;;;;;;;1.29;69.66;102171.48;84796;1329;24078;-71
2022/03/23 05:53:15;;;;;;;;;;;;;;;1.49;70.13;102171.34;84765;1327;22709;-71
2022/03/23 05:55:27;;;;;;;56.80;31.20;;;;;;;2.19;71.43;102166.16;84795;1326;23896;-79
2022/03/23 05:57:39;;;;;;;50.40;29.20;;;;;;;3.44;71.78;102161.39;84790;1327;23764;-78
2022/03/23 05:59:51;;;;;;;49.20;30.30;;;;;;;4.82;72.69;102155.27;84774;1327;24232;-79
2022/03/23 06:02:01;;;;;;;47.80;30.30;;;;;;;6.16;69.18;102151.47;84766;1326;22579;-79
2022/03/23 06:04:10;;;;;;;47.50;31.10;;;;;;;7.39;66.59;102149.11;84826;1327;22605;-71
2022/03/23 06:06:19;;;;;;;45.70;31.10;;;;;;;8.52;62.69;102144.95;84788;1327;22859;-72
2022/03/23 06:08:28;;;;;;;48.10;29.50;;;;;;;9.59;59.23;102140.59;84731;1327;22699;-71
2022/03/23 06:10:37;;;;;;;46.60;29.50;;;;;;;10.64;56.18;102136.32;84653;1331;22616;-80
2022/03/23 06:12:49;;;;;;;44.90;29.40;;;;;;;11.54;53.09;102134.74;84715;1327;22691;-80
2022/03/23 06:14:56;;;;;;;45.70;28.60;;;;;;;12.37;51.01;102132.41;84781;1328;22612;-71
2022/03/23 06:17:07;;;;;;;43.00;28.90;;;;;;;13.11;48.10;102134.70;84784;1327;23883;-71
2022/03/23 06:19:15;;;;;;;44.10;27.50;;;;;;;13.87;45.19;102133.05;84693;1328;24026;-84
2022/03/23 06:21:24;;;;;;;47.60;30.60;;;;;;;14.39;43.60;102129.69;84797;1327;22606;-84
2022/03/23 06:23:37;;;;;;;44.50;29.70;;;;;;;14.89;41.83;102127.49;84822;1327;22600;-86
2022/03/23 06:25:45;;;;;;;47.60;29.70;;;;;;;15.27;40.76;102128.70;84844;1327;24229;-87
2022/03/23 06:27:54;;;;;;;43.10;29.00;;;;;;;15.56;39.17;102125.53;84801;1326;22759;-86
2022/03/23 06:30:02;;;;;;;43.30;29.00;;;;;;;15.82;38.03;102122.63;84800;1327;22600;-85
2022/03/23 06:32:12;;;;;;;43.10;29.60;;;;;;;16.02;38.00;102123.39;84722;1327;25222;-83
2022/03/23 06:34:22;;;;;;;45.00;26.70;;;;;;;16.24;37.63;102123.90;84805;1326;23978;-72
2022/03/23 06:36:35;;;;;;;43.60;28.90;;;;;;;16.42;37.37;102121.84;84776;1328;22592;-73
2022/03/23 06:38:48;;;;;;;38.30;27.90;;;;;;;16.55;37.00;102122.48;84731;1327;24269;-74
2022/03/23 06:40:57;;;;;;;38.10;27.90;;;;;;;16.41;36.65;102122.59;84812;1327;22982;-84
2022/03/23 06:43:06;;;;;;;47.50;29.30;;;;;;;16.33;36.89;102121.14;84833;1326;23960;-82
2022/03/23 06:45:15;;;;;;;44.90;27.00;;;;;;;16.56;36.48;102121.21;84788;1327;22710;-82
2022/03/23 06:47:23;;;;;;;45.70;26.10;;;;;;;16.91;36.70;102120.86;84795;1327;26570;-82
2022/03/23 06:49:32;;;;;;;37.50;25.20;;;;;;;17.50;36.00;102121.65;84749;1327;22878;-83
2022/03/23 06:51:44;;;;;;;33.60;23.70;;;;;;;18.07;34.92;102116.36;84789;1325;22548;-84
2022/03/23 06:53:54;;;;;;;34.80;22.40;;;;;;;18.71;33.69;102116.45;84805;1328;24065;-83
2022/03/23 06:56:06;;;;;;;42.70;21.70;;;;;;;19.30;32.97;102114.82;84725;1325;22701;-72
2022/03/23 06:58:17;;;;;;;30.90;20.60;;;;;;;19.83;31.48;102116.05;84773;1326;24215;-72
2022/03/23 07:00:28;;;;;;;36.80;21.70;;;;;;;20.12;30.14;102116.19;84768;1325;26687;-71
2022/03/23 07:02:38;;;;;;;30.80;19.60;;;;;;;20.51;30.02;102119.34;84748;1325;22746;-72
2022/03/23 07:04:47;;;;;;;30.30;19.50;;;;;;;20.94;29.01;102118.89;84727;1328;25298;-71
2022/03/23 07:06:55;;;;;;;29.70;19.90;;;;;;;21.29;28.63;102118.18;84777;1326;22609;-72
2022/03/23 07:11:29;;;;;;;71.80;51.90;;;;;;;21.92;27.39;102108.27;84701;1326;22587;-71
2022/03/23 07:13:37;;;;;;;34.10;23.50;;;;;;;22.11;26.73;102106.96;84786;1326;25436;-71
2022/03/23 07:15:46;;;;;;;39.80;22.10;;;;;;;22.43;26.20;102107.77;84797;1327;23914;-85
2022/03/23 07:17:58;;;;;;;33.20;21.30;;;;;;;22.64;26.16;102107.73;84802;1327;23329;-81
2022/03/23 07:20:07;;;;;;;39.40;23.10;;;;;;;22.92;25.31;102105.45;84806;1327;23994;-83
2022/03/23 07:22:17;;;;;;;34.20;22.70;;;;;;;23.08;24.93;102104.14;84805;1327;23984;-81
2022/03/23 07:24:24;;;;;;;33.40;24.30;;;;;;;23.30;24.73;102105.79;84767;1325;25294;-83
2022/03/23 07:26:31;;;;;;;34.00;23.40;;;;;;;23.73;24.42;102100.66;84785;1326;22680;-82
2022/03/23 07:28:38;;;;;;;34.60;23.10;;;;;;;24.17;23.48;102100.74;84794;1326;22651;-84
2022/03/23 07:30:45;;;;;;;35.10;23.80;;;;;;;24.44;22.91;102096.59;84786;1326;25302;-71
2022/03/23 07:32:53;;;;;;;37.00;24.00;;;;;;;24.66;23.17;102094.55;84773;1327;22584;-72
2022/03/23 07:35:00;;;;;;;41.80;23.90;;;;;;;25.07;22.73;102097.14;84837;1326;23918;-80
2022/03/23 07:37:07;;;;;;;57.90;25.90;;;;;;;25.53;22.10;102096.14;84780;1322;22756;-80
2022/03/23 07:39:16;;;;;;;40.40;24.90;;;;;;;25.91;21.74;102088.17;84707;1327;22594;-74
2022/03/23 07:41:27;;;;;;;29.90;24.50;;;;;;;26.23;21.10;102086.02;84777;1326;22811;-72
2022/03/23 07:43:36;;;;;;;36.60;24.80;;;;;;;26.41;21.06;102084.45;84766;1326;22698;-70
2022/03/23 07:45:45;;;;;;;37.90;26.60;;;;;;;26.80;20.81;102081.05;84738;1326;25580;-81
2022/03/23 07:47:54;;;;;;;37.40;25.30;;;;;;;27.12;20.02;102079.92;84791;1318;22830;-87
2022/03/23 07:50:02;;;;;;;31.20;23.50;;;;;;;27.35;19.81;102077.03;84709;1328;25327;-72
2022/03/23 07:52:10;;;;;;;31.40;23.60;;;;;;;27.59;19.27;102073.96;84704;1327;23940;-72
2022/03/23 07:54:19;;;;;;;36.50;23.80;;;;;;;27.80;19.04;102070.27;84740;1327;22591;-86
2022/03/23 07:56:27;;;;;;;35.30;22.20;;;;;;;28.00;18.81;102069.43;84746;1327;24219;-86
2022/03/23 07:58:35;;;;;;;29.30;22.10;;;;;;;28.08;18.30;102069.48;84755;1325;22619;-86
2022/03/23 08:00:45;;;;;;;36.40;22.60;;;;;;;28.04;18.20;102067.61;84760;1327;22604;-87
2022/03/23 08:02:53;;;;;;;38.10;22.30;;;;;;;28.05;18.50;102063.94;84721;1325;22708;-86
2022/03/23 08:05:06;;;;;;;31.40;22.10;;;;;;;28.25;18.17;102062.04;84754;1327;22595;-72
2022/03/23 08:07:17;;;;;;;30.40;22.00;;;;;;;28.55;17.85;102062.38;84747;1327;24020;-84
2022/03/23 08:09:26;;;;;;;35.60;22.70;;;;;;;28.75;17.55;102062.20;84764;1326;22607;-86
2022/03/23 08:11:35;;;;;;;31.70;21.40;;;;;;;28.77;17.49;102060.26;84716;1327;22608;-72
2022/03/23 08:13:46;;;;;;;33.60;22.80;;;;;;;28.96;17.57;102057.88;84744;1327;23913;-72
2022/03/23 08:15:55;;;;;;;30.10;23.20;;;;;;;29.27;17.12;102055.41;84742;1327;23793;-86
2022/03/23 08:18:06;;;;;;;29.70;23.00;;;;;;;29.55;16.42;102058.67;84729;1327;22653;-86
2022/03/23 08:20:33;;;;;;;32.50;23.40;;;;;;;29.74;16.54;102055.46;84752;1330;26665;-86
2022/03/23 08:22:42;;;;;;;31.40;22.50;;;;;;;29.88;16.03;102054.71;84736;1327;23953;-87
2022/03/23 08:24:52;;;;;;;29.10;23.00;;;;;;;29.82;16.11;102053.05;84718;1327;22588;-72
2022/03/23 08:27:01;;;;;;;33.60;26.60;;;;;;;29.88;16.39;102053.48;84715;1326;23822;-84
2022/03/23 08:29:12;;;;;;;33.00;25.80;;;;;;;30.21;16.14;102049.58;84734;1327;23969;-71
2022/03/23 08:31:20;;;;;;;40.30;26.10;;;;;;;30.48;16.09;102049.16;84726;1325;22826;-72
2022/03/23 08:33:34;;;;;;;30.60;25.60;;;;;;;30.57;15.40;102046.52;84716;1326;22641;-71
2022/03/23 08:35:42;;;;;;;32.80;25.50;;;;;;;30.45;15.83;102042.83;84736;1323;24282;-83
2022/03/23 08:37:51;;;;;;;31.20;25.30;;;;;;;30.51;15.50;102043.33;84739;1327;22613;-82
2022/03/23 08:39:59;;;;;;;32.00;24.80;;;;;;;30.60;15.23;102043.75;84717;1328;22584;-83
2022/03/23 08:42:08;;;;;;;34.10;25.00;;;;;;;30.42;15.01;102042.90;84722;1327;24341;-82
2022/03/23 08:44:17;;;;;;;36.40;26.10;;;;;;;30.31;15.59;102041.80;84727;1327;23917;-71
2022/03/23 08:46:26;;;;;;;37.90;25.30;;;;;;;30.40;15.67;102037.38;84735;1325;22631;-72
2022/03/23 08:48:35;;;;;;;31.40;24.30;;;;;;;30.52;15.15;102038.34;84725;1325;22757;-71
2022/03/23 08:50:44;;;;;;;33.40;25.90;;;;;;;30.52;14.99;102035.62;84671;1330;22600;-85
2022/03/23 08:52:53;;;;;;;37.60;26.20;;;;;;;30.43;15.10;102034.54;84782;1325;22614;-85
2022/03/23 08:55:02;;;;;;;32.00;25.90;;;;;;;30.42;15.34;102033.88;84773;1318;22797;-86
2022/03/23 08:57:10;;;;;;;39.20;25.60;;;;;;;30.73;15.25;102035.09;84776;1326;22868;-85
2022/03/23 08:59:21;;;;;;;34.60;25.50;;;;;;;30.75;14.84;102035.52;84779;1326;25421;-72
2022/03/23 09:01:33;;;;;;;36.10;25.20;;;;;;;30.71;15.08;102034.54;84775;1326;24038;-72
2022/03/23 09:03:42;;;;;;;33.60;25.70;;;;;;;31.01;14.92;102030.85;84774;1327;25261;-75
2022/03/23 09:05:48;;;;;;;;;;;;;;;31.02;14.58;102027.30;84766;1327;26467;-76
2022/03/23 09:08:01;;;;;;;37.00;26.50;;;;;;;30.80;15.09;102031.16;84738;1327;23962;-76
2022/03/23 09:10:14;;;;;;;34.00;26.30;;;;;;;30.93;14.42;102025.52;84789;1326;22830;-71
2022/03/23 09:12:23;;;;;;;30.90;25.90;;;;;;;30.83;14.82;102023.30;84780;1324;22732;-82
2022/03/23 09:14:34;;;;;;;35.10;26.00;;;;;;;31.01;15.03;102018.30;84830;1327;23896;-83
2022/03/23 09:16:46;;;;;;;34.20;27.30;;;;;;;31.33;14.84;102014.77;84723;1327;24334;-72
2022/03/23 09:18:56;;;;;;;34.70;26.20;;;;;;;31.56;14.72;102011.71;84649;1328;22604;-70
2022/03/23 09:21:05;;;;;;;35.50;26.30;;;;;;;31.61;14.36;102010.77;84776;1325;22794;-71
2022/03/23 09:23:14;;;;;;;36.60;26.10;;;;;;;31.81;14.70;102012.17;84764;1326;22806;-70
2022/03/23 09:25:25;;;;;;;30.50;26.50;;;;;;;32.09;14.20;102013.06;84797;1323;23898;-83
2022/03/23 09:27:37;;;;;;;33.40;26.50;;;;;;;32.05;14.45;102008.63;84767;1328;23879;-72
2022/03/23 09:29:49;;;;;;;31.40;24.60;;;;;;;32.18;14.39;102003.73;84792;1324;23962;-84
2022/03/23 09:32:00;;;;;;;33.40;26.50;;;;;;;32.30;14.08;102004.03;84784;1327;25295;-84
2022/03/23 09:34:08;;;;;;;32.00;26.90;;;;;;;32.44;14.05;102002.31;84785;1327;25438;-72
2022/03/23 09:38:50;;;;;;;36.00;25.70;;;;;;;32.40;13.58;101997.38;84716;1329;22880;-71
2022/03/23 09:41:01;;;;;;;33.20;25.30;;;;;;;32.30;13.48;101993.98;84787;1327;22602;-85
2022/03/23 09:43:13;;;;;;;36.60;26.90;;;;;;;32.05;13.94;101986.27;84774;1323;24128;-85
2022/03/23 09:45:38;;;;;;;39.70;24.50;;;;;;;32.03;13.74;101986.98;84785;1326;22863;-72
2022/03/23 09:47:47;;;;;;;36.00;27.00;;;;;;;31.91;14.01;101979.06;84793;1326;22759;-71
2022/03/23 09:49:58;;;;;;;34.00;24.10;;;;;;;31.95;13.52;101977.39;84794;1327;22698;-84
2022/03/23 09:52:08;;;;;;;29.50;23.20;;;;;;;31.74;13.90;101978.59;84793;1327;22656;-82
2022/03/23 09:54:17;;;;;;;31.70;23.40;;;;;;;31.43;14.00;101969.76;84797;1327;24241;-78
2022/03/23 09:56:25;;;;;;;32.20;23.40;;;;;;;31.08;14.21;101967.27;84778;1326;22604;-78
2022/03/23 09:58:34;;;;;;;32.60;23.60;;;;;;;30.69;14.11;101963.96;84788;1327;22835;-79
2022/03/23 10:00:44;;;;;;;26.90;22.00;;;;;;;30.10;14.12;101961.37;84802;1326;22546;-71
2022/03/23 10:03:41;;;;;;;23.70;19.30;;;;;;;29.60;14.17;101960.02;84761;1326;24273;-71
2022/03/23 10:06:58;;;;;;;29.80;19.80;;;;;;;28.66;14.10;101963.11;84598;1327;22758;-73